Terminal Aerodrome Forecast
Issued by NWS

Home | Current Version | Previous Version | Text Only | Print | Product List | Glossary On
Versions: 1 2 3 4 5 6 7 8 9 10 11 12 13 14 15 16
000
FTUS41 KGYX 231100
TAFHIE
TAF
KHIE 231120Z 2312/2412 00000KT 6SM BR SCT050
     FM231600 25006KT P6SM VCSH BKN050
     FM231800 26006KT 4SM -TSRA OVC040CB
     FM240000 27005KT P6SM BKN100=

USA.gov is the U.S. government's official web portal to all federal, state and local government web resources and services.